Yahk, Canada
Current Conditions -  °F | °C
As of 3:15 PM on Friday 31 Oct 2014 (Local Time) from K65S Reporting Station
Overcast Overcast  
Wind Chill: 50°   Ceiling: 9500
Heat Index: 50°   Visibility: 10mi
Dew Point: 45°   Wind: 0mph
Humidity: 82%   Direction: NA
Pressure: 29.74"   Gusts: NA
Location:  49.08°N, 116.1°W
Report Text: K65S 312215Z AUTO 00000KT 10SM FEW075 OVC095 10/07 A2974 RMK AO2
Loading
Personal Weather Stations






























Interactive Weather Map
Tropical Storm Tracking
New forecast layout! Learn more

10-Day Weather Forecast

Advertisements
Track Severe Weather on mobile